Time;durP1;ratioP1;P1;durP2;ratioP2;P2;SDS_P1;SDS_P2;PMS_P1;PMS_P2;Temp;Humidity;BMP_temperature;BMP_pressure;BME280_temperature;BME280_humidity;BME280_pressure;Samples;Min_cycle;Max_cycle;Signal;HPM_P1;HPM_P2
2022/07/28 00:06:42;;;;;;;6.57;2.00;;;20.00;1.00;;;;;;5615773;23;20498;-78
2022/07/28 00:11:43;;;;;;;6.07;2.53;;;19.70;1.00;;;;;;5254796;23;20236;-79
2022/07/28 00:16:43;;;;;;;7.77;2.70;;;19.60;1.00;;;;;;5454071;23;20216;-77
2022/07/28 00:19:09;;;;;;;6.37;2.20;;;;;;;;;;5738975;23;21459;-73
2022/07/28 00:21:35;;;;;;;5.80;1.70;;;19.70;1.00;;;;;;5813568;23;20205;-77
2022/07/28 00:31:43;;;;;;;8.67;1.70;;;19.70;1.00;;;;;;4993124;23;20507;-73
2022/07/28 00:34:08;;;;;;;3.73;1.90;;;19.70;1.00;;;;;;4959655;28;20427;-73
2022/07/28 00:36:34;;;;;;;4.77;1.87;;;18.40;1.00;;;;;;4953389;28;20176;-73
2022/07/28 00:39:00;;;;;;;2.50;1.70;;;19.50;1.00;;;;;;4950986;28;20541;-73
2022/07/28 00:41:25;;;;;;;2.70;1.77;;;19.50;1.00;;;;;;4949487;28;20196;-73
2022/07/28 00:43:51;;;;;;;3.30;2.07;;;19.50;1.00;;;;;;4942378;28;20709;-73
2022/07/28 00:46:20;;;;;;;2.37;1.57;;;19.40;1.00;;;;;;4951978;28;20946;-73
2022/07/28 00:48:51;;;;;;;4.77;2.07;;;19.40;1.00;;;;;;4949065;28;20494;-73
2022/07/28 00:51:20;;;;;;;5.63;2.20;;;19.40;1.00;;;;;;4949740;28;20451;-73
2022/07/28 00:53:46;;;;;;;5.53;2.00;;;19.40;1.00;;;;;;4956807;28;20550;-73
2022/07/28 00:56:13;;;;;;;3.30;1.80;;;19.30;1.00;;;;;;4951244;28;20418;-73
2022/07/28 00:58:39;;;;;;;7.43;1.90;;;19.30;1.00;;;;;;4964677;28;20444;-73
2022/07/28 01:01:06;;;;;;;3.30;1.60;;;19.30;1.00;;;;;;4949811;28;20438;-73
2022/07/28 01:03:32;;;;;;;4.63;1.70;;;19.30;1.00;;;;;;4965079;28;20464;-73
2022/07/28 01:05:58;;;;;;;3.37;1.70;;;19.30;1.00;;;;;;4965397;28;20412;-73
2022/07/28 01:08:36;;;;;;;3.90;1.77;;;19.30;1.00;;;;;;4947861;28;20814;-73
2022/07/28 01:11:10;;;;;;;2.80;1.60;;;19.40;1.00;;;;;;4931374;29;20622;-73
2022/07/28 01:14:09;;;;;;;2.70;1.87;;;19.50;1.00;;;;;;4945488;28;20466;-73
2022/07/28 01:16:41;;;;;;;2.63;1.77;;;19.60;1.00;;;;;;4950277;28;20460;-73
2022/07/28 01:19:32;;;;;;;5.40;2.10;;;20.70;1.00;;;;;;4950100;28;20535;-73
2022/07/28 01:22:00;;;;;;;6.27;1.90;;;19.70;1.00;;;;;;4945319;28;20461;-73
2022/07/28 01:24:49;;;;;;;3.30;1.87;;;19.70;1.00;;;;;;4943206;29;20468;-73
2022/07/28 01:27:43;;;;;;;3.77;1.77;;;19.70;1.00;;;;;;4937764;28;20539;-73
2022/07/28 01:30:27;;;;;;;3.97;1.90;;;19.60;1.00;;;;;;4942302;29;20428;-72
2022/07/28 01:32:59;;;;;;;4.10;1.90;;;19.60;1.00;;;;;;4950063;28;20955;-73
2022/07/28 01:35:29;;;;;;;5.73;2.20;;;19.60;1.00;;;;;;4953036;28;20451;-73
2022/07/28 01:38:02;;;;;;;3.17;2.00;;;19.60;1.00;;;;;;4953389;29;20471;-74
2022/07/28 01:40:32;;;;;;;3.67;1.97;;;19.60;1.00;;;;;;4945336;28;20545;-73
2022/07/28 01:43:00;;;;;;;5.37;1.60;;;19.50;1.00;;;;;;4953402;28;20416;-73
2022/07/28 01:45:27;;;;;;;3.70;1.70;;;19.50;1.00;;;;;;4941871;28;20498;-74
2022/07/28 01:47:55;;;;;;;2.50;1.67;;;19.40;1.00;;;;;;4946335;28;20443;-73
2022/07/28 01:50:23;;;;;;;4.00;2.10;;;19.40;1.00;;;;;;4952240;28;20447;-73
2022/07/28 01:52:50;;;;;;;3.30;1.73;;;19.30;1.00;;;;;;4951631;28;20436;-73
2022/07/28 01:55:19;;;;;;;4.63;2.30;;;19.30;1.00;;;;;;4954782;29;20420;-73
2022/07/28 01:57:46;;;;;;;7.23;1.83;;;19.20;1.00;;;;;;4954338;28;20502;-73
2022/07/28 02:00:12;;;;;;;4.27;2.20;;;19.00;1.00;;;;;;4955320;28;20459;-73
2022/07/28 02:02:41;;;;;;;6.00;2.10;;;19.00;1.00;;;;;;4954306;28;20596;-73
2022/07/28 02:05:10;;;;;;;4.53;2.47;;;19.00;1.00;;;;;;4967905;28;20503;-72
2022/07/28 02:07:38;;;;;;;3.40;2.20;;;18.90;1.00;;;;;;4948984;29;20440;-73
2022/07/28 02:10:05;;;;;;;3.30;1.90;;;19.00;1.00;;;;;;4947373;29;20433;-73
2022/07/28 02:12:33;;;;;;;4.70;2.03;;;18.90;1.00;;;;;;4952140;28;20412;-73
2022/07/28 02:14:59;;;;;;;7.63;2.20;;;19.00;1.00;;;;;;4967444;28;20429;-73
2022/07/28 02:17:28;;;;;;;6.73;2.30;;;19.10;1.00;;;;;;4953228;28;20451;-73
2022/07/28 02:19:55;;;;;;;2.97;2.00;;;19.10;1.00;;;;;;4953273;28;20467;-73
2022/07/28 02:22:21;;;;;;;3.60;1.83;;;19.10;1.00;;;;;;4950109;28;20463;-73
2022/07/28 02:24:47;;;;;;;4.27;2.20;;;19.10;1.00;;;;;;4953063;28;20878;-73
2022/07/28 02:27:25;;;;;;;5.83;2.10;;;19.20;1.00;;;;;;4947997;28;20480;-73
2022/07/28 02:29:59;;;;;;;6.83;3.10;;;19.30;1.00;;;;;;4951515;29;20215;-73
2022/07/28 02:32:36;;;;;;;4.23;2.33;;;19.30;1.00;;;;;;4952130;28;21053;-73
2022/07/28 02:35:08;;;;;;;4.10;2.27;;;19.30;1.00;;;;;;4952940;28;20435;-73
2022/07/28 02:37:37;;;;;;;3.07;2.20;;;19.30;1.00;;;;;;4966439;28;20440;-73
2022/07/28 02:40:03;;;;;;;5.07;2.30;;;19.40;1.00;;;;;;4966720;28;20432;-73
2022/07/28 02:42:32;;;;;;;2.93;2.20;;;19.30;1.00;;;;;;4966254;28;20442;-73
2022/07/28 02:45:04;;;;;;;3.07;2.30;;;19.40;1.00;;;;;;4952340;28;20486;-73
2022/07/28 02:47:33;;;;;;;8.17;2.33;;;19.40;1.00;;;;;;4946185;28;20962;-73
2022/07/28 02:50:02;;;;;;;8.10;2.60;;;19.60;1.00;;;;;;4964116;28;20463;-72
2022/07/28 02:52:31;;;;;;;3.77;2.30;;;19.70;1.00;;;;;;4946621;28;20494;-73
2022/07/28 02:54:59;;;;;;;7.60;2.43;;;19.80;1.00;;;;;;4949288;28;20451;-73
2022/07/28 02:57:25;;;;;;;3.43;2.50;;;19.90;1.00;;;;;;4947758;29;20412;-74
2022/07/28 02:59:52;;;;;;;4.00;2.40;;;19.90;1.00;;;;;;4950506;28;20443;-73
2022/07/28 03:02:20;;;;;;;3.27;2.13;;;19.90;1.00;;;;;;4950413;28;21009;-73
2022/07/28 03:04:55;;;;;;;4.50;2.57;;;20.00;1.00;;;;;;4964887;28;20452;-73
2022/07/28 03:07:21;;;;;;;4.10;2.10;;;20.00;1.00;;;;;;4949206;28;20765;-73
2022/07/28 03:09:47;;;;;;;8.77;2.70;;;20.10;1.00;;;;;;4943997;28;20448;-73
2022/07/28 03:12:13;;;;;;;7.80;2.40;;;20.00;1.00;;;;;;4945671;28;20208;-73
2022/07/28 03:14:40;;;;;;;4.73;2.33;;;20.00;1.00;;;;;;4949995;29;20479;-73
2022/07/28 03:17:06;;;;;;;4.60;2.40;;;20.00;1.00;;;;;;4964337;28;20967;-74
2022/07/28 03:19:32;;;;;;;4.60;2.00;;;20.00;1.00;;;;;;4951249;29;20427;-74
2022/07/28 03:21:57;;;;;;;4.00;2.40;;;20.10;1.00;;;;;;4949543;28;20230;-73
2022/07/28 03:24:26;;;;;;;6.70;2.43;;;20.10;1.00;;;;;;4966943;28;20660;-73
2022/07/28 03:27:00;;;;;;;3.90;2.30;;;20.10;1.00;;;;;;4952395;28;20169;-73
2022/07/28 03:29:30;;;;;;;3.63;2.20;;;20.10;1.00;;;;;;4951838;28;20431;-73
2022/07/28 03:31:57;;;;;;;12.23;2.60;;;20.20;1.00;;;;;;4942013;28;20451;-73
2022/07/28 03:34:22;;;;;;;4.50;2.30;;;20.20;1.00;;;;;;4947393;28;20448;-73
2022/07/28 03:36:55;;;;;;;6.60;2.30;;;20.10;1.00;;;;;;4950853;28;20424;-73
2022/07/28 03:39:23;;;;;;;7.93;2.70;;;20.10;1.00;;;;;;4942320;28;20271;-74
2022/07/28 03:41:50;;;;;;;3.70;2.50;;;20.10;1.00;;;;;;4951262;28;20435;-73
2022/07/28 03:44:17;;;;;;;2.90;2.17;;;20.10;1.00;;;;;;4950651;28;20495;-74
2022/07/28 03:46:46;;;;;;;8.00;2.17;;;20.10;1.00;;;;;;4950263;28;20547;-73
2022/07/28 03:49:12;;;;;;;12.97;2.30;;;20.20;1.00;;;;;;4945482;29;20416;-73
2022/07/28 03:51:37;;;;;;;4.20;2.00;;;20.00;1.00;;;;;;4944545;28;20578;-73
2022/07/28 03:54:03;;;;;;;5.50;2.30;;;19.90;1.00;;;;;;4966240;28;20223;-73
2022/07/28 03:56:28;;;;;;;7.23;2.50;;;19.80;1.00;;;;;;4944658;28;20240;-73
2022/07/28 03:58:54;;;;;;;3.20;2.17;;;19.60;1.00;;;;;;4958303;28;20182;-73
2022/07/28 04:01:19;;;;;;;3.00;2.00;;;19.50;1.00;;;;;;4945938;28;20201;-73
2022/07/28 04:03:45;;;;;;;4.80;2.30;;;19.40;1.00;;;;;;4949254;28;20232;-73
2022/07/28 04:06:14;;;;;;;6.33;2.17;;;19.40;1.00;;;;;;4951776;28;20171;-74
2022/07/28 04:08:40;;;;;;;2.57;1.90;;;19.50;1.00;;;;;;4949043;28;20600;-74
2022/07/28 04:11:06;;;;;;;4.40;2.60;;;19.50;1.00;;;;;;4943503;29;21004;-73
2022/07/28 04:13:33;;;;;;;8.13;2.40;;;19.50;1.00;;;;;;4950872;28;20520;-72
2022/07/28 04:15:59;;;;;;;3.93;2.43;;;19.70;1.00;;;;;;4951025;28;20447;-72
2022/07/28 04:18:24;;;;;;;4.60;2.60;;;19.80;1.00;;;;;;4942875;28;20457;-73
2022/07/28 04:20:50;;;;;;;4.50;2.60;;;19.90;1.00;;;;;;4951571;28;20192;-72
2022/07/28 04:23:17;;;;;;;6.67;2.10;;;20.50;1.00;;;;;;4948315;28;20176;-73
2022/07/28 04:25:43;;;;;;;3.37;2.40;;;20.00;1.00;;;;;;4950506;28;20678;-72
2022/07/28 04:28:08;;;;;;;4.87;2.47;;;20.00;1.00;;;;;;4950313;28;20411;-73
2022/07/28 04:30:34;;;;;;;5.77;2.47;;;20.10;1.00;;;;;;4949652;29;20215;-74
2022/07/28 04:32:59;;;;;;;4.63;2.60;;;20.10;1.00;;;;;;4950426;28;20180;-73
2022/07/28 04:35:27;;;;;;;5.13;2.60;;;20.20;1.00;;;;;;4942728;28;20199;-74
2022/07/28 04:37:57;;;;;;;3.53;2.37;;;20.30;1.00;;;;;;4949876;29;20172;-73
2022/07/28 04:40:23;;;;;;;4.90;2.50;;;20.40;1.00;;;;;;4958792;28;20513;-73
2022/07/28 04:42:49;;;;;;;3.63;2.70;;;20.40;1.00;;;;;;4949042;29;20416;-73
2022/07/28 04:45:16;;;;;;;4.37;2.60;;;20.40;1.00;;;;;;4944672;28;20207;-73
2022/07/28 04:47:41;;;;;;;3.23;2.00;;;20.40;1.00;;;;;;4948538;28;20435;-73
2022/07/28 04:50:09;;;;;;;7.13;3.10;;;20.40;1.00;;;;;;4946886;28;20653;-73
2022/07/28 04:52:35;;;;;;;7.33;2.53;;;20.10;1.00;;;;;;4949837;28;20168;-73
2022/07/28 04:55:02;;;;;;;3.70;2.13;;;19.90;1.00;;;;;;4949482;28;20442;-72
2022/07/28 04:57:28;;;;;;;3.40;2.33;;;19.90;1.00;;;;;;4949609;28;20415;-72
2022/07/28 04:59:55;;;;;;;4.00;2.10;;;19.90;1.00;;;;;;4962873;28;20443;-72
2022/07/28 05:02:20;;;;;;;4.57;2.80;;;20.10;1.00;;;;;;4950214;28;20486;-72
2022/07/28 05:04:46;;;;;;;4.70;3.10;;;20.40;1.00;;;;;;4950295;28;20849;-73
2022/07/28 05:07:11;;;;;;;4.23;2.60;;;20.40;1.00;;;;;;4949849;28;20180;-72
2022/07/28 05:09:37;;;;;;;5.13;2.77;;;20.50;1.00;;;;;;4945667;28;20173;-72
2022/07/28 05:12:04;;;;;;;13.50;2.67;;;20.70;1.00;;;;;;4951803;28;20674;-72
2022/07/28 05:14:30;;;;;;;6.13;2.80;;;20.90;1.00;;;;;;4945910;28;20230;-73
2022/07/28 05:16:56;;;;;;;5.53;2.67;;;20.90;1.00;;;;;;4954326;28;20832;-73
2022/07/28 05:19:21;;;;;;;4.57;2.90;;;21.00;1.00;;;;;;4955228;28;20164;-73
2022/07/28 05:21:47;;;;;;;10.33;3.00;;;21.00;1.00;;;;;;4951290;28;20714;-73
2022/07/28 05:24:12;;;;;;;3.13;2.53;;;21.10;1.00;;;;;;4954005;28;20207;-74
2022/07/28 05:28:06;;;;;;;4.17;2.80;;;21.10;1.00;;;;;;5106043;27;20566;-73
2022/07/28 05:30:31;;;;;;;4.67;2.10;;;21.10;1.00;;;;;;5102368;28;20463;-73
2022/07/28 05:33:00;;;;;;;4.17;2.33;;;21.10;1.00;;;;;;5096967;28;20251;-73
2022/07/28 05:35:25;;;;;;;4.70;2.40;;;21.00;1.00;;;;;;5096552;28;20171;-73
2022/07/28 05:37:51;;;;;;;6.80;3.50;;;21.00;1.00;;;;;;5100363;28;20440;-73
2022/07/28 05:40:17;;;;;;;4.80;2.70;;;21.00;1.00;;;;;;5104351;28;20224;-72
2022/07/28 05:42:43;;;;;;;7.20;2.80;;;21.10;1.00;;;;;;5102953;28;20166;-72
2022/07/28 05:45:10;;;;;;;6.43;2.17;;;21.20;1.00;;;;;;5101108;28;20235;-72
2022/07/28 05:47:45;;;;;;;5.03;2.20;;;21.20;1.00;;;;;;5098461;28;20471;-72
2022/07/28 05:50:11;;;;;;;6.50;2.77;;;21.30;1.00;;;;;;5105036;28;20408;-72
2022/07/28 05:52:36;;;;;;;5.30;3.10;;;21.50;1.00;;;;;;5095869;28;20428;-73
2022/07/28 05:55:04;;;;;;;5.27;3.03;;;21.70;1.00;;;;;;5097640;28;20628;-81
2022/07/28 05:57:29;;;;;;;4.10;3.03;;;21.80;1.00;;;;;;5097176;28;20207;-80
2022/07/28 05:59:55;;;;;;;5.30;2.90;;;22.20;1.00;;;;;;5107867;28;20435;-80
2022/07/28 06:02:20;;;;;;;4.50;3.00;;;22.40;1.00;;;;;;5110159;28;20266;-80
2022/07/28 06:04:45;;;;;;;5.67;2.87;;;22.50;1.00;;;;;;5103150;28;20182;-80
2022/07/28 06:07:11;;;;;;;5.43;3.00;;;22.80;1.00;;;;;;5107538;28;20221;-80
2022/07/28 06:09:36;;;;;;;10.07;3.27;;;22.90;1.00;;;;;;5108714;28;20191;-81
2022/07/28 06:12:02;;;;;;;6.47;2.87;;;22.90;1.00;;;;;;5105336;28;20187;-81
2022/07/28 06:14:28;;;;;;;5.23;3.00;;;22.80;1.00;;;;;;5112438;28;20199;-80
2022/07/28 06:16:53;;;;;;;6.40;2.87;;;22.80;1.00;;;;;;5123780;28;20206;-79
2022/07/28 06:19:19;;;;;;;8.40;3.40;;;22.80;1.00;;;;;;5112805;27;20660;-80
2022/07/28 06:21:44;;;;;;;4.33;3.20;;;22.80;1.00;;;;;;5108863;28;20237;-81
2022/07/28 06:24:10;;;;;;;5.07;3.13;;;22.70;1.00;;;;;;5110976;28;20178;-80
2022/07/28 06:26:36;;;;;;;4.87;3.23;;;22.60;1.00;;;;;;5097371;28;20452;-79
2022/07/28 06:29:03;;;;;;;4.90;2.97;;;22.50;1.00;;;;;;5114255;28;20182;-80
2022/07/28 06:31:28;;;;;;;6.40;3.03;;;22.40;1.00;;;;;;5108496;28;20480;-81
2022/07/28 06:33:54;;;;;;;5.83;2.97;;;22.50;1.00;;;;;;5109958;28;20969;-80
2022/07/28 06:36:19;;;;;;;7.80;3.23;;;22.40;1.00;;;;;;5109619;28;20178;-80
2022/07/28 06:38:45;;;;;;;5.40;3.20;;;22.40;1.00;;;;;;5096699;28;20279;-81
2022/07/28 06:41:11;;;;;;;7.50;3.10;;;22.30;1.00;;;;;;5103251;28;20202;-81
2022/07/28 06:43:36;;;;;;;7.43;3.00;;;22.40;1.00;;;;;;5095604;28;20176;-81
2022/07/28 06:46:02;;;;;;;5.37;3.60;;;22.50;1.00;;;;;;5100246;28;20258;-81
2022/07/28 06:48:27;;;;;;;9.03;3.23;;;22.60;1.00;;;;;;5094466;28;20176;-82
2022/07/28 06:50:53;;;;;;;5.77;3.20;;;22.60;1.00;;;;;;5083899;28;20240;-73
2022/07/28 06:53:18;;;;;;;5.30;3.20;;;22.60;1.00;;;;;;5086366;28;20258;-74
2022/07/28 06:55:44;;;;;;;8.00;3.60;;;22.70;1.00;;;;;;5083949;28;20168;-74
2022/07/28 06:58:09;;;;;;;6.90;3.80;;;22.70;1.00;;;;;;5092350;28;20526;-74
2022/07/28 07:00:35;;;;;;;5.57;3.53;;;23.00;1.00;;;;;;5086744;28;20278;-74
2022/07/28 07:03:00;;;;;;;6.10;3.10;;;23.10;1.00;;;;;;5088671;28;20674;-74
2022/07/28 07:05:28;;;;;;;5.17;3.60;;;23.40;1.00;;;;;;5090078;28;20595;-74
2022/07/28 07:07:54;;;;;;;5.97;3.53;;;23.60;1.00;;;;;;5089799;28;20282;-74
2022/07/28 07:10:19;;;;;;;6.10;3.50;;;23.70;1.00;;;;;;5089767;28;20528;-74
2022/07/28 07:12:45;;;;;;;4.87;3.20;;;23.90;1.00;;;;;;5086715;28;20282;-74
2022/07/28 07:15:11;;;;;;;5.50;3.03;;;23.90;1.00;;;;;;5089919;28;20179;-74
2022/07/28 07:17:36;;;;;;;9.70;3.17;;;23.90;1.00;;;;;;5082692;28;20684;-74
2022/07/28 07:20:04;;;;;;;5.87;3.47;;;24.00;1.00;;;;;;5096187;28;20170;-75
2022/07/28 07:22:30;;;;;;;5.80;3.60;;;24.00;1.00;;;;;;5081500;28;20623;-74
2022/07/28 07:24:55;;;;;;;5.87;3.40;;;23.90;1.00;;;;;;5087030;28;20509;-74
2022/07/28 07:27:21;;;;;;;5.47;3.60;;;23.90;1.00;;;;;;5077913;28;20211;-74
2022/07/28 07:29:46;;;;;;;7.20;3.53;;;23.90;1.00;;;;;;5090896;28;20172;-74
2022/07/28 07:32:11;;;;;;;7.80;3.47;;;23.90;1.00;;;;;;5083077;28;20195;-74
2022/07/28 07:34:38;;;;;;;5.80;3.40;;;23.80;1.00;;;;;;5090990;28;20198;-74
2022/07/28 07:37:04;;;;;;;7.37;3.60;;;24.00;1.00;;;;;;5088402;28;20599;-74
2022/07/28 07:39:30;;;;;;;12.13;4.70;;;23.70;1.00;;;;;;5091599;28;20539;-74
2022/07/28 07:41:56;;;;;;;6.13;4.17;;;23.70;1.00;;;;;;5088371;28;20547;-74
2022/07/28 07:44:22;;;;;;;6.03;4.17;;;24.00;1.00;;;;;;5103597;28;20690;-74
2022/07/28 07:46:47;;;;;;;44.77;8.37;;;24.40;1.00;;;;;;5085147;28;20206;-74
2022/07/28 07:49:15;;;;;;;9.77;4.40;;;24.90;1.00;;;;;;5086768;28;20179;-74
2022/07/28 07:51:41;;;;;;;9.83;4.20;;;25.10;1.00;;;;;;5084704;28;20337;-74
2022/07/28 07:54:06;;;;;;;6.60;4.00;;;25.30;1.00;;;;;;5086290;28;20512;-74
2022/07/28 07:56:32;;;;;;;8.97;4.70;;;25.50;1.00;;;;;;5085324;28;20179;-74
2022/07/28 07:58:57;;;;;;;9.47;4.53;;;25.80;1.00;;;;;;5080871;28;20179;-74
2022/07/28 08:01:23;;;;;;;5.93;4.20;;;25.90;1.00;;;;;;5075130;28;20609;-74
2022/07/28 08:03:49;;;;;;;7.30;4.90;;;26.00;1.00;;;;;;5093312;28;20315;-74
2022/07/28 08:06:15;;;;;;;7.23;4.47;;;26.00;1.00;;;;;;5091030;27;20207;-74
2022/07/28 08:08:41;;;;;;;7.47;5.03;;;26.10;1.00;;;;;;5074338;28;20209;-74
2022/07/28 08:11:06;;;;;;;6.30;4.60;;;26.10;1.00;;;;;;5082592;28;20199;-74
2022/07/28 08:13:32;;;;;;;9.73;4.77;;;26.10;1.00;;;;;;5081131;28;20438;-74
2022/07/28 08:15:58;;;;;;;14.33;5.07;;;26.10;1.00;;;;;;5090869;28;20179;-75
2022/07/28 08:18:24;;;;;;;7.90;4.93;;;26.40;1.00;;;;;;5078122;28;20187;-74
2022/07/28 08:20:49;;;;;;;6.27;4.60;;;26.60;1.00;;;;;;5091958;28;20573;-75
2022/07/28 08:23:15;;;;;;;8.00;5.13;;;26.90;1.00;;;;;;5098530;28;20251;-75
2022/07/28 08:25:40;;;;;;;9.00;5.40;;;26.70;1.00;;;;;;5089689;28;20182;-74
2022/07/28 08:28:06;;;;;;;8.43;5.17;;;26.70;1.00;;;;;;5086771;28;20258;-74
2022/07/28 08:30:31;;;;;;;8.73;4.80;;;27.00;1.00;;;;;;5089956;28;20198;-74
2022/07/28 08:32:57;;;;;;;9.53;5.47;;;27.50;1.00;;;;;;5091426;28;20209;-74
2022/07/28 08:35:23;;;;;;;7.47;5.30;;;27.50;1.00;;;;;;5100803;28;20198;-74
2022/07/28 08:37:49;;;;;;;7.93;5.37;;;27.70;1.00;;;;;;5081930;28;20583;-74
2022/07/28 08:40:14;;;;;;;9.20;6.07;;;28.30;1.00;;;;;;5087866;28;20187;-74
2022/07/28 08:42:54;;;;;;;11.30;5.53;;;28.40;1.00;;;;;;5087636;28;20191;-73
2022/07/28 08:45:22;;;;;;;6.67;5.30;;;28.80;1.00;;;;;;5086473;28;20274;-74
2022/07/28 08:47:49;;;;;;;13.60;5.07;;;29.40;1.00;;;;;;5086926;28;20201;-74
2022/07/28 08:50:15;;;;;;;12.20;5.53;;;29.70;1.00;;;;;;5090224;28;20199;-74
2022/07/28 08:52:44;;;;;;;8.70;5.10;;;30.20;1.00;;;;;;5078943;28;20203;-74
2022/07/28 08:55:10;;;;;;;8.32;4.70;;;30.60;1.00;;;;;;5088850;28;20174;-75
2022/07/28 08:57:40;;;;;;;13.00;5.30;;;31.10;1.00;;;;;;5086651;28;20315;-75
2022/07/28 09:00:08;;;;;;;7.10;4.93;;;31.20;1.00;;;;;;5081280;28;20260;-75
2022/07/28 09:02:37;;;;;;;7.43;5.18;;;31.20;1.00;;;;;;5074231;28;20180;-75
2022/07/28 09:05:03;;;;;;;5.68;4.55;;;31.20;1.00;;;;;;5095463;28;20636;-74
2022/07/28 09:07:30;;;;;;;10.05;5.10;;;31.20;1.00;;;;;;5079770;28;20282;-75
2022/07/28 09:09:55;;;;;;;7.00;5.20;;;31.70;1.00;;;;;;5076454;28;20179;-76
2022/07/28 09:12:21;;;;;;;7.45;5.13;;;32.40;1.00;;;;;;5082845;28;20553;-76
2022/07/28 09:14:46;;;;;;;7.07;4.85;;;33.80;1.00;;;;;;5078989;28;20180;-76
2022/07/28 09:17:12;;;;;;;6.32;5.05;;;35.20;1.00;;;;;;5085924;28;20259;-76
2022/07/28 09:19:38;;;;;;;8.15;4.88;;;35.70;1.00;;;;;;5085209;28;20171;-75
2022/07/28 09:22:05;;;;;;;7.35;4.80;;;36.00;1.00;;;;;;5080503;28;20203;-75
2022/07/28 09:24:41;;;;;;;10.43;4.80;;;35.60;1.00;;;;;;5082443;28;20218;-75
2022/07/28 09:27:09;;;;;;;5.05;4.43;;;36.00;1.00;;;;;;5084550;28;20236;-75
2022/07/28 09:29:36;;;;;;;7.38;4.70;;;36.30;1.00;;;;;;5087903;28;20187;-75
2022/07/28 09:32:02;;;;;;;5.63;4.50;;;37.00;1.00;;;;;;5083649;28;20202;-75
2022/07/28 09:34:37;;;;;;;6.00;4.40;;;37.20;1.00;;;;;;5089948;28;20175;-76
2022/07/28 09:37:03;;;;;;;6.93;4.47;;;37.60;1.00;;;;;;5085329;28;22345;-76
2022/07/28 09:39:34;;;;;;;7.32;4.47;;;37.50;1.00;;;;;;5094409;28;20179;-76
2022/07/28 09:42:00;;;;;;;5.88;4.65;;;37.00;1.00;;;;;;5084237;28;20623;-75
2022/07/28 09:44:27;;;;;;;6.70;4.70;;;36.50;1.00;;;;;;5080536;28;20182;-75
2022/07/28 09:46:53;;;;;;;7.35;5.05;;;35.80;1.00;;;;;;5079255;28;20231;-75
2022/07/28 09:49:19;;;;;;;6.95;3.97;;;36.30;1.00;;;;;;5080570;28;20731;-75
2022/07/28 09:52:05;;;;;;;7.90;4.45;;;37.10;1.00;;;;;;5077104;28;20191;-76
2022/07/28 09:54:31;;;;;;;6.45;4.03;;;37.70;1.00;;;;;;5083196;28;20414;-76
2022/07/28 09:56:57;;;;;;;5.93;4.20;;;38.10;1.00;;;;;;5081792;28;20650;-75
2022/07/28 09:59:22;;;;;;;7.10;3.90;;;37.50;1.00;;;;;;5078352;28;20254;-75
2022/07/28 10:02:01;;;;;;;6.72;4.15;;;37.50;1.00;;;;;;5083806;28;20219;-75
2022/07/28 10:04:36;;;;;;;6.55;3.65;;;38.10;1.00;;;;;;5075501;28;20542;-76
2022/07/28 10:07:12;;;;;;;7.78;4.40;;;38.80;1.00;;;;;;5080664;28;20202;-76
2022/07/28 10:09:38;;;;;;;5.75;3.78;;;40.10;1.00;;;;;;5088798;28;20183;-76
2022/07/28 10:12:18;;;;;;;7.55;3.78;;;40.20;1.00;;;;;;5083692;28;20195;-76
2022/07/28 10:14:45;;;;;;;6.28;4.07;;;39.80;1.00;;;;;;5100252;28;20654;-76
2022/07/28 10:17:20;;;;;;;10.02;4.25;;;39.90;1.00;;;;;;5084005;28;20167;-76
2022/07/28 10:19:46;;;;;;;6.32;3.95;;;40.10;1.00;;;;;;5091124;28;20183;-76
2022/07/28 10:22:12;;;;;;;4.97;3.60;;;40.20;1.00;;;;;;5083992;28;20191;-76
2022/07/28 10:24:39;;;;;;;6.90;3.45;;;39.70;1.00;;;;;;5085174;28;20661;-76
2022/07/28 10:27:05;;;;;;;5.40;3.60;;;39.90;1.00;;;;;;5094942;28;20294;-76
2022/07/28 10:29:31;;;;;;;5.60;3.58;;;40.60;1.00;;;;;;5092309;28;20178;-76
2022/07/28 10:32:03;;;;;;;5.82;3.30;;;41.20;1.00;;;;;;5089218;28;20195;-76
2022/07/28 10:34:44;;;;;;;6.25;3.35;;;41.70;1.00;;;;;;5088947;28;20182;-76
2022/07/28 10:37:17;;;;;;;6.50;3.47;;;40.90;1.00;;;;;;5084658;28;20224;-76
2022/07/28 10:39:50;;;;;;;6.78;3.35;;;40.80;1.00;;;;;;5081745;28;20266;-75
2022/07/28 10:42:16;;;;;;;6.93;3.50;;;40.30;1.00;;;;;;5077264;28;20210;-75
2022/07/28 10:44:44;;;;;;;6.78;3.17;;;39.40;1.00;;;;;;5088249;28;20183;-75
2022/07/28 10:47:10;;;;;;;9.10;3.22;;;38.50;1.00;;;;;;5085825;28;20288;-76
2022/07/28 10:49:37;;;;;;;3.83;3.00;;;38.40;1.00;;;;;;5087807;28;20190;-75
2022/07/28 10:52:05;;;;;;;10.52;3.25;;;38.00;1.00;;;;;;5091025;28;20190;-75
2022/07/28 10:54:34;;;;;;;5.80;3.03;;;37.40;1.00;;;;;;5090016;28;20297;-75
2022/07/28 10:57:02;;;;;;;6.05;3.13;;;36.90;1.00;;;;;;5093690;28;20189;-75
2022/07/28 10:59:47;;;;;;;4.70;3.53;;;36.60;1.00;;;;;;5090300;28;20262;-75
2022/07/28 11:02:41;;;;;;;5.10;3.50;;;35.80;1.00;;;;;;5088661;28;20203;-75
2022/07/28 11:05:24;;;;;;;5.30;3.30;;;35.20;1.00;;;;;;5088677;28;20179;-75
2022/07/28 11:07:49;;;;;;;4.45;3.20;;;34.80;1.00;;;;;;5090580;28;20203;-75
2022/07/28 11:10:16;;;;;;;4.53;3.63;;;34.80;1.00;;;;;;5085631;28;20182;-75
2022/07/28 11:12:53;;;;;;;6.13;3.88;;;34.80;1.00;;;;;;5088300;28;20172;-75
2022/07/28 11:15:32;;;;;;;6.68;3.70;;;35.10;1.00;;;;;;5083389;28;20714;-75
2022/07/28 11:18:03;;;;;;;6.72;3.80;;;35.60;1.00;;;;;;5086855;28;20620;-75
2022/07/28 11:20:51;;;;;;;5.55;3.85;;;36.40;1.00;;;;;;5098225;28;20198;-75
2022/07/28 11:23:45;;;;;;;5.38;3.70;;;36.60;1.00;;;;;;5100123;28;20254;-75
2022/07/28 11:26:20;;;;;;;5.05;3.47;;;37.80;1.00;;;;;;5086483;28;20183;-76
2022/07/28 11:29:07;;;;;;;5.25;3.60;;;40.30;1.00;;;;;;5091157;28;20258;-76
2022/07/28 11:31:54;;;;;;;6.63;3.58;;;41.60;1.00;;;;;;5082764;28;20721;-76
2022/07/28 11:34:23;;;;;;;5.00;3.70;;;42.40;1.00;;;;;;5084286;28;20183;-76
2022/07/28 11:37:04;;;;;;;6.88;3.85;;;42.30;1.00;;;;;;5095888;28;20187;-76
2022/07/28 11:39:31;;;;;;;4.20;3.45;;;42.10;1.00;;;;;;5087455;28;20186;-76
2022/07/28 11:41:57;;;;;;;7.43;3.60;;;42.00;1.00;;;;;;5089815;28;20194;-76
2022/07/28 11:44:27;;;;;;;5.07;3.30;;;42.10;1.00;;;;;;5087165;28;20168;-75
2022/07/28 11:47:13;;;;;;;9.45;3.55;;;42.20;1.00;;;;;;5080274;28;20203;-76
2022/07/28 11:49:39;;;;;;;5.50;3.50;;;42.00;1.00;;;;;;5089968;28;20186;-76
2022/07/28 11:52:11;;;;;;;8.32;3.80;;;42.60;1.00;;;;;;5087204;28;20615;-76
2022/07/28 11:54:38;;;;;;;5.85;3.30;;;43.30;1.00;;;;;;5081533;28;20246;-77
2022/07/28 11:57:08;;;;;;;6.18;3.50;;;43.80;1.00;;;;;;5075600;28;20183;-77
2022/07/28 12:00:00;;;;;;;5.18;3.60;;;43.30;1.00;;;;;;5083767;28;20640;-76
2022/07/28 12:02:28;;;;;;;4.25;3.38;;;43.50;1.00;;;;;;5092860;28;20708;-77
2022/07/28 12:04:55;;;;;;;8.05;3.67;;;43.60;1.00;;;;;;5104084;28;20652;-76
2022/07/28 12:07:31;;;;;;;4.63;3.30;;;43.60;1.00;;;;;;5077386;28;20242;-76
2022/07/28 12:09:56;;;;;;;5.35;3.72;;;43.70;1.00;;;;;;5084653;28;20194;-76
2022/07/28 12:12:22;;;;;;;8.50;3.30;;;44.40;1.00;;;;;;5099074;28;20632;-76
2022/07/28 12:14:48;;;;;;;5.60;3.40;;;44.50;1.00;;;;;;5079021;28;20269;-76
2022/07/28 12:17:14;;;;;;;7.28;3.40;;;44.30;1.00;;;;;;5081382;28;20183;-77
2022/07/28 12:19:40;;;;;;;7.63;3.55;;;44.60;1.00;;;;;;5089197;28;20171;-76
2022/07/28 12:22:10;;;;;;;6.93;3.20;;;45.00;1.00;;;;;;5096587;28;20199;-77
2022/07/28 12:24:36;;;;;;;4.25;3.25;;;45.20;1.00;;;;;;5089574;28;20223;-76
2022/07/28 12:27:03;;;;;;;4.20;3.30;;;44.30;1.00;;;;;;5087762;28;20294;-76
2022/07/28 12:29:32;;;;;;;5.68;3.70;;;43.60;1.00;;;;;;5088432;28;20190;-76
2022/07/28 12:31:59;;;;;;;4.97;3.80;;;42.80;1.00;;;;;;5084243;28;20199;-77
2022/07/28 12:34:26;;;;;;;5.35;3.38;;;43.10;1.00;;;;;;5090663;28;20168;-76
2022/07/28 12:36:53;;;;;;;6.82;3.60;;;43.40;1.00;;;;;;5084778;28;20618;-76
2022/07/28 12:39:21;;;;;;;4.97;3.30;;;43.50;1.00;;;;;;5078929;28;20200;-76
2022/07/28 12:41:47;;;;;;;9.10;4.00;;;43.60;1.00;;;;;;5082535;28;20614;-77
2022/07/28 12:44:13;;;;;;;6.32;3.83;;;44.10;1.00;;;;;;5085347;28;20581;-76
2022/07/28 12:46:47;;;;;;;5.40;3.30;;;44.70;1.00;;;;;;5082776;28;20206;-78
2022/07/28 12:49:20;;;;;;;6.93;3.25;;;45.20;1.00;;;;;;5089852;28;20171;-77
2022/07/28 12:51:46;;;;;;;9.93;3.28;;;45.40;1.00;;;;;;5079963;28;20227;-77
2022/07/28 12:54:13;;;;;;;5.00;3.75;;;45.60;1.00;;;;;;5088919;28;20214;-78
2022/07/28 12:56:52;;;;;;;6.05;2.97;;;46.00;1.00;;;;;;5078254;28;20332;-78
2022/07/28 12:59:19;;;;;;;8.52;3.20;;;45.60;1.00;;;;;;5077817;28;20228;-78
2022/07/28 13:01:50;;;;;;;6.32;3.15;;;44.40;1.00;;;;;;5077304;28;20208;-77
2022/07/28 13:04:35;;;;;;;5.78;3.47;;;43.10;1.00;;;;;;5093335;28;20178;-78
2022/07/28 13:07:01;;;;;;;8.93;3.70;;;42.10;1.00;;;;;;5085844;28;20271;-78
2022/07/28 13:09:27;;;;;;;4.15;3.60;;;41.40;1.00;;;;;;5085237;28;20266;-76
2022/07/28 13:11:52;;;;;;;5.43;3.70;;;40.80;1.00;;;;;;5078905;28;20728;-75
2022/07/28 13:14:40;;;;;;;6.32;4.00;;;40.10;1.00;;;;;;5081974;28;20665;-75
2022/07/28 13:17:06;;;;;;;10.10;4.00;;;39.30;1.00;;;;;;5070468;28;20526;-75
2022/07/28 13:19:31;;;;;;;5.22;3.97;;;38.20;1.00;;;;;;5070081;28;20186;-77
2022/07/28 13:21:58;;;;;;;5.88;3.90;;;37.70;1.00;;;;;;5070646;28;20272;-77
2022/07/28 13:24:24;;;;;;;6.45;4.07;;;37.40;1.00;;;;;;5070910;28;20749;-77